Terminal Aerodrome Forecast
Issued by NWS

Home | Current Version | Previous Version | Text Only | Print | Product List | Glossary On
Versions: 1 2 3 4 5 6 7 8 9 10 11 12 13 14 15 16 17 18 19 20 21 22 23 24 25 26 27 28
000
FTUS43 KDLH 281700
TAFHYR
TAF
KHYR 281736Z 2818/2918 26011G19KT P6SM SCT008 BKN015
      TEMPO 2818/2819 -RA
     FM282000 27014G24KT P6SM VCSH OVC015
     FM290400 29010G18KT P6SM OVC008
     FM291500 32006KT P6SM OVC015=

USA.gov is the U.S. government's official web portal to all federal, state and local government web resources and services.